sensor_id;sensor_type;location;lat;lon;timestamp;temperature;humidity
14006;DHT22;7078;51.542;7.314;2024-02-21T00:01:56;9.10;99.90
14006;DHT22;7078;51.542;7.314;2024-02-21T00:04:21;9.10;99.90
14006;DHT22;7078;51.542;7.314;2024-02-21T00:06:47;9.10;99.90
14006;DHT22;7078;51.542;7.314;2024-02-21T00:09:12;9.10;99.90
14006;DHT22;7078;51.542;7.314;2024-02-21T00:11:38;9.10;99.90
14006;DHT22;7078;51.542;7.314;2024-02-21T00:14:03;9.10;99.90
14006;DHT22;7078;51.542;7.314;2024-02-21T00:16:29;9.10;99.90
14006;DHT22;7078;51.542;7.314;2024-02-21T00:18:54;9.10;99.90
14006;DHT22;7078;51.542;7.314;2024-02-21T00:21:20;9.10;99.90
14006;DHT22;7078;51.542;7.314;2024-02-21T00:23:46;9.10;99.90
14006;DHT22;7078;51.542;7.314;2024-02-21T00:26:14;9.10;99.90
14006;DHT22;7078;51.542;7.314;2024-02-21T00:28:40;9.10;99.90
14006;DHT22;7078;51.542;7.314;2024-02-21T00:31:05;9.00;99.90
14006;DHT22;7078;51.542;7.314;2024-02-21T00:33:31;9.00;99.90
14006;DHT22;7078;51.542;7.314;2024-02-21T00:35:56;9.00;99.90
14006;DHT22;7078;51.542;7.314;2024-02-21T00:38:22;9.00;99.90
14006;DHT22;7078;51.542;7.314;2024-02-21T00:40:48;9.00;99.90
14006;DHT22;7078;51.542;7.314;2024-02-21T00:43:13;9.00;99.90
14006;DHT22;7078;51.542;7.314;2024-02-21T00:45:39;9.00;99.90
14006;DHT22;7078;51.542;7.314;2024-02-21T00:48:05;9.00;99.90
14006;DHT22;7078;51.542;7.314;2024-02-21T00:50:30;9.00;99.90
14006;DHT22;7078;51.542;7.314;2024-02-21T00:52:56;9.00;99.90
14006;DHT22;7078;51.542;7.314;2024-02-21T00:55:22;9.00;99.90
14006;DHT22;7078;51.542;7.314;2024-02-21T00:57:47;9.00;99.90
14006;DHT22;7078;51.542;7.314;2024-02-21T01:00:13;9.10;99.90
14006;DHT22;7078;51.542;7.314;2024-02-21T01:02:39;9.00;99.90
14006;DHT22;7078;51.542;7.314;2024-02-21T01:05:05;9.00;99.90
14006;DHT22;7078;51.542;7.314;2024-02-21T01:07:30;9.00;99.90
14006;DHT22;7078;51.542;7.314;2024-02-21T01:09:56;9.00;99.90
14006;DHT22;7078;51.542;7.314;2024-02-21T01:12:22;9.10;99.90
14006;DHT22;7078;51.542;7.314;2024-02-21T01:14:47;9.00;99.90
14006;DHT22;7078;51.542;7.314;2024-02-21T01:17:14;9.00;99.90
14006;DHT22;7078;51.542;7.314;2024-02-21T01:19:40;9.00;99.90
14006;DHT22;7078;51.542;7.314;2024-02-21T01:22:05;9.00;99.90
14006;DHT22;7078;51.542;7.314;2024-02-21T01:24:31;9.00;99.90
14006;DHT22;7078;51.542;7.314;2024-02-21T01:26:56;9.00;99.90
14006;DHT22;7078;51.542;7.314;2024-02-21T01:29:22;9.00;99.90
14006;DHT22;7078;51.542;7.314;2024-02-21T01:31:47;9.00;99.90
14006;DHT22;7078;51.542;7.314;2024-02-21T01:34:13;9.00;99.90
14006;DHT22;7078;51.542;7.314;2024-02-21T01:36:39;8.90;99.90
14006;DHT22;7078;51.542;7.314;2024-02-21T01:39:04;9.00;99.90
14006;DHT22;7078;51.542;7.314;2024-02-21T01:41:31;8.90;99.90
14006;DHT22;7078;51.542;7.314;2024-02-21T01:43:57;8.90;99.90
14006;DHT22;7078;51.542;7.314;2024-02-21T01:46:23;8.90;99.90
14006;DHT22;7078;51.542;7.314;2024-02-21T01:48:53;8.90;99.90
14006;DHT22;7078;51.542;7.314;2024-02-21T01:51:19;8.90;99.90
14006;DHT22;7078;51.542;7.314;2024-02-21T01:53:45;8.80;99.90
14006;DHT22;7078;51.542;7.314;2024-02-21T01:56:12;8.80;99.90
14006;DHT22;7078;51.542;7.314;2024-02-21T01:58:39;8.80;99.90
14006;DHT22;7078;51.542;7.314;2024-02-21T02:01:06;8.80;99.90
14006;DHT22;7078;51.542;7.314;2024-02-21T02:03:31;8.80;99.90
14006;DHT22;7078;51.542;7.314;2024-02-21T02:05:57;8.80;99.90
14006;DHT22;7078;51.542;7.314;2024-02-21T02:08:23;8.80;99.90
14006;DHT22;7078;51.542;7.314;2024-02-21T02:10:49;8.80;99.90
14006;DHT22;7078;51.542;7.314;2024-02-21T02:13:15;8.80;99.90
14006;DHT22;7078;51.542;7.314;2024-02-21T02:15:41;8.80;99.90
14006;DHT22;7078;51.542;7.314;2024-02-21T02:18:07;8.90;99.90
14006;DHT22;7078;51.542;7.314;2024-02-21T02:20:33;8.80;99.90
14006;DHT22;7078;51.542;7.314;2024-02-21T02:23:10;8.80;99.90
14006;DHT22;7078;51.542;7.314;2024-02-21T02:25:37;8.80;99.90
14006;DHT22;7078;51.542;7.314;2024-02-21T02:28:03;8.80;99.90
14006;DHT22;7078;51.542;7.314;2024-02-21T02:30:35;8.80;99.90
14006;DHT22;7078;51.542;7.314;2024-02-21T02:33:04;8.90;99.90
14006;DHT22;7078;51.542;7.314;2024-02-21T02:35:30;8.90;99.90
14006;DHT22;7078;51.542;7.314;2024-02-21T02:37:55;8.80;99.90
14006;DHT22;7078;51.542;7.314;2024-02-21T02:40:21;8.80;99.90
14006;DHT22;7078;51.542;7.314;2024-02-21T02:42:47;8.80;99.90
14006;DHT22;7078;51.542;7.314;2024-02-21T02:45:17;8.80;99.90
14006;DHT22;7078;51.542;7.314;2024-02-21T02:47:44;8.70;99.90
14006;DHT22;7078;51.542;7.314;2024-02-21T02:50:11;8.70;99.90
14006;DHT22;7078;51.542;7.314;2024-02-21T02:52:37;8.70;99.90
14006;DHT22;7078;51.542;7.314;2024-02-21T02:55:03;8.70;99.90
14006;DHT22;7078;51.542;7.314;2024-02-21T02:57:29;8.70;99.90
14006;DHT22;7078;51.542;7.314;2024-02-21T02:59:54;8.70;99.90
14006;DHT22;7078;51.542;7.314;2024-02-21T03:02:20;8.60;99.90
14006;DHT22;7078;51.542;7.314;2024-02-21T03:04:45;8.60;99.90
14006;DHT22;7078;51.542;7.314;2024-02-21T03:07:11;8.60;99.90
14006;DHT22;7078;51.542;7.314;2024-02-21T03:09:38;8.60;99.90
14006;DHT22;7078;51.542;7.314;2024-02-21T03:12:04;8.60;99.90
14006;DHT22;7078;51.542;7.314;2024-02-21T03:14:30;8.60;99.90
14006;DHT22;7078;51.542;7.314;2024-02-21T03:16:56;8.60;99.90
14006;DHT22;7078;51.542;7.314;2024-02-21T03:19:21;8.70;99.90
14006;DHT22;7078;51.542;7.314;2024-02-21T03:21:48;8.70;99.90
14006;DHT22;7078;51.542;7.314;2024-02-21T03:24:18;8.70;99.90
14006;DHT22;7078;51.542;7.314;2024-02-21T03:26:44;8.80;99.90
14006;DHT22;7078;51.542;7.314;2024-02-21T03:29:10;8.80;99.90
14006;DHT22;7078;51.542;7.314;2024-02-21T03:31:36;8.80;99.90
14006;DHT22;7078;51.542;7.314;2024-02-21T03:34:02;8.80;99.90
14006;DHT22;7078;51.542;7.314;2024-02-21T03:36:28;8.80;99.90
14006;DHT22;7078;51.542;7.314;2024-02-21T03:38:54;8.80;99.90
14006;DHT22;7078;51.542;7.314;2024-02-21T03:41:20;8.80;99.90
14006;DHT22;7078;51.542;7.314;2024-02-21T03:43:46;8.80;99.90
14006;DHT22;7078;51.542;7.314;2024-02-21T03:46:11;8.80;99.90
14006;DHT22;7078;51.542;7.314;2024-02-21T03:48:37;8.80;99.90
14006;DHT22;7078;51.542;7.314;2024-02-21T03:51:02;8.80;99.90
14006;DHT22;7078;51.542;7.314;2024-02-21T03:53:28;8.80;99.90
14006;DHT22;7078;51.542;7.314;2024-02-21T03:55:54;8.80;99.90
14006;DHT22;7078;51.542;7.314;2024-02-21T03:58:20;8.80;99.90
14006;DHT22;7078;51.542;7.314;2024-02-21T04:00:46;8.80;99.90
14006;DHT22;7078;51.542;7.314;2024-02-21T04:03:11;8.80;99.90
14006;DHT22;7078;51.542;7.314;2024-02-21T04:05:37;8.80;99.90
14006;DHT22;7078;51.542;7.314;2024-02-21T04:08:05;8.80;99.90
14006;DHT22;7078;51.542;7.314;2024-02-21T04:10:31;8.80;99.90
14006;DHT22;7078;51.542;7.314;2024-02-21T04:12:57;8.90;99.90
14006;DHT22;7078;51.542;7.314;2024-02-21T04:15:22;8.90;99.90
14006;DHT22;7078;51.542;7.314;2024-02-21T04:17:48;8.80;99.90
14006;DHT22;7078;51.542;7.314;2024-02-21T04:20:15;8.90;99.90
14006;DHT22;7078;51.542;7.314;2024-02-21T04:22:43;8.90;99.90
14006;DHT22;7078;51.542;7.314;2024-02-21T04:25:10;8.80;99.90
14006;DHT22;7078;51.542;7.314;2024-02-21T04:27:36;8.80;99.90
14006;DHT22;7078;51.542;7.314;2024-02-21T04:30:02;8.90;99.90
14006;DHT22;7078;51.542;7.314;2024-02-21T04:32:28;8.80;99.90
14006;DHT22;7078;51.542;7.314;2024-02-21T04:34:53;8.80;99.90
14006;DHT22;7078;51.542;7.314;2024-02-21T04:37:20;8.80;99.90
14006;DHT22;7078;51.542;7.314;2024-02-21T04:39:46;8.80;99.90
14006;DHT22;7078;51.542;7.314;2024-02-21T04:42:11;8.90;99.90
14006;DHT22;7078;51.542;7.314;2024-02-21T04:44:37;8.80;99.90
14006;DHT22;7078;51.542;7.314;2024-02-21T04:47:03;8.90;99.90
14006;DHT22;7078;51.542;7.314;2024-02-21T04:49:29;8.90;99.90
14006;DHT22;7078;51.542;7.314;2024-02-21T04:51:55;8.90;99.90
14006;DHT22;7078;51.542;7.314;2024-02-21T04:54:20;8.90;99.90
14006;DHT22;7078;51.542;7.314;2024-02-21T04:56:46;8.90;99.90
14006;DHT22;7078;51.542;7.314;2024-02-21T04:59:11;8.90;99.90
14006;DHT22;7078;51.542;7.314;2024-02-21T05:01:37;8.90;99.90
14006;DHT22;7078;51.542;7.314;2024-02-21T05:04:03;8.80;99.90
14006;DHT22;7078;51.542;7.314;2024-02-21T05:06:28;8.80;99.90
14006;DHT22;7078;51.542;7.314;2024-02-21T05:08:54;8.80;99.90
14006;DHT22;7078;51.542;7.314;2024-02-21T05:11:21;8.80;99.90
14006;DHT22;7078;51.542;7.314;2024-02-21T05:13:46;8.80;99.90
14006;DHT22;7078;51.542;7.314;2024-02-21T05:16:12;8.80;99.90
14006;DHT22;7078;51.542;7.314;2024-02-21T05:18:38;8.80;99.90
14006;DHT22;7078;51.542;7.314;2024-02-21T05:21:03;8.80;99.90
14006;DHT22;7078;51.542;7.314;2024-02-21T05:23:29;8.90;99.90
14006;DHT22;7078;51.542;7.314;2024-02-21T05:25:55;8.90;99.90
14006;DHT22;7078;51.542;7.314;2024-02-21T05:28:20;8.90;99.90
14006;DHT22;7078;51.542;7.314;2024-02-21T05:30:46;8.90;99.90
14006;DHT22;7078;51.542;7.314;2024-02-21T05:33:11;8.90;99.90
14006;DHT22;7078;51.542;7.314;2024-02-21T05:35:38;8.90;99.90
14006;DHT22;7078;51.542;7.314;2024-02-21T05:38:03;8.90;99.90
14006;DHT22;7078;51.542;7.314;2024-02-21T05:40:33;8.90;99.90
14006;DHT22;7078;51.542;7.314;2024-02-21T05:42:58;8.90;99.90
14006;DHT22;7078;51.542;7.314;2024-02-21T05:45:24;8.90;99.90
14006;DHT22;7078;51.542;7.314;2024-02-21T05:47:49;8.90;99.90
14006;DHT22;7078;51.542;7.314;2024-02-21T05:50:15;8.90;99.90
14006;DHT22;7078;51.542;7.314;2024-02-21T05:52:41;8.90;99.90
14006;DHT22;7078;51.542;7.314;2024-02-21T05:55:07;8.90;99.90
14006;DHT22;7078;51.542;7.314;2024-02-21T05:57:34;8.90;99.90
14006;DHT22;7078;51.542;7.314;2024-02-21T05:59:59;8.90;99.90
14006;DHT22;7078;51.542;7.314;2024-02-21T06:02:25;8.90;99.90
14006;DHT22;7078;51.542;7.314;2024-02-21T06:04:50;8.90;99.90
14006;DHT22;7078;51.542;7.314;2024-02-21T06:07:16;9.00;99.90
14006;DHT22;7078;51.542;7.314;2024-02-21T06:09:41;9.00;99.90
14006;DHT22;7078;51.542;7.314;2024-02-21T06:12:07;9.00;99.90
14006;DHT22;7078;51.542;7.314;2024-02-21T06:14:33;9.00;99.90
14006;DHT22;7078;51.542;7.314;2024-02-21T06:16:58;9.00;99.90
14006;DHT22;7078;51.542;7.314;2024-02-21T06:19:24;9.00;99.90
14006;DHT22;7078;51.542;7.314;2024-02-21T06:21:49;9.00;99.90
14006;DHT22;7078;51.542;7.314;2024-02-21T06:24:15;9.00;99.90
14006;DHT22;7078;51.542;7.314;2024-02-21T06:26:40;9.00;99.90
14006;DHT22;7078;51.542;7.314;2024-02-21T06:29:06;9.00;99.90
14006;DHT22;7078;51.542;7.314;2024-02-21T06:31:32;9.00;99.90
14006;DHT22;7078;51.542;7.314;2024-02-21T06:33:57;9.00;99.90
14006;DHT22;7078;51.542;7.314;2024-02-21T06:36:23;9.00;99.90
14006;DHT22;7078;51.542;7.314;2024-02-21T06:38:48;9.00;99.90
14006;DHT22;7078;51.542;7.314;2024-02-21T06:41:17;9.00;99.90
14006;DHT22;7078;51.542;7.314;2024-02-21T06:43:45;9.00;99.90
14006;DHT22;7078;51.542;7.314;2024-02-21T06:46:11;9.00;99.90
14006;DHT22;7078;51.542;7.314;2024-02-21T06:48:37;9.00;99.90
14006;DHT22;7078;51.542;7.314;2024-02-21T06:51:02;9.00;99.90
14006;DHT22;7078;51.542;7.314;2024-02-21T06:53:28;9.00;99.90
14006;DHT22;7078;51.542;7.314;2024-02-21T06:55:54;8.90;99.90
14006;DHT22;7078;51.542;7.314;2024-02-21T06:58:19;9.00;99.90
14006;DHT22;7078;51.542;7.314;2024-02-21T07:00:45;9.00;99.90
14006;DHT22;7078;51.542;7.314;2024-02-21T07:03:10;9.10;99.90
14006;DHT22;7078;51.542;7.314;2024-02-21T07:05:36;9.10;99.90
14006;DHT22;7078;51.542;7.314;2024-02-21T07:08:02;9.20;99.90
14006;DHT22;7078;51.542;7.314;2024-02-21T07:10:28;9.20;99.90
14006;DHT22;7078;51.542;7.314;2024-02-21T07:12:55;9.20;99.90
14006;DHT22;7078;51.542;7.314;2024-02-21T07:15:20;9.20;99.90
14006;DHT22;7078;51.542;7.314;2024-02-21T07:17:46;9.30;99.90
14006;DHT22;7078;51.542;7.314;2024-02-21T07:20:12;9.30;99.90
14006;DHT22;7078;51.542;7.314;2024-02-21T07:22:37;9.30;99.90
14006;DHT22;7078;51.542;7.314;2024-02-21T07:25:03;9.30;99.90
14006;DHT22;7078;51.542;7.314;2024-02-21T07:27:29;9.40;99.90
14006;DHT22;7078;51.542;7.314;2024-02-21T07:29:57;9.40;99.90
14006;DHT22;7078;51.542;7.314;2024-02-21T07:32:22;9.30;99.90
14006;DHT22;7078;51.542;7.314;2024-02-21T07:34:48;9.30;99.90
14006;DHT22;7078;51.542;7.314;2024-02-21T07:37:13;9.30;99.90
14006;DHT22;7078;51.542;7.314;2024-02-21T07:39:39;9.30;99.90
14006;DHT22;7078;51.542;7.314;2024-02-21T07:42:04;9.40;99.90
14006;DHT22;7078;51.542;7.314;2024-02-21T07:44:32;9.40;99.90
14006;DHT22;7078;51.542;7.314;2024-02-21T07:46:58;9.30;99.90
14006;DHT22;7078;51.542;7.314;2024-02-21T07:49:24;9.40;99.90
14006;DHT22;7078;51.542;7.314;2024-02-21T07:51:49;9.40;99.90
14006;DHT22;7078;51.542;7.314;2024-02-21T07:54:15;9.40;99.90
14006;DHT22;7078;51.542;7.314;2024-02-21T07:56:41;9.40;99.90
14006;DHT22;7078;51.542;7.314;2024-02-21T07:59:06;9.50;99.90
14006;DHT22;7078;51.542;7.314;2024-02-21T08:01:33;9.50;99.90
14006;DHT22;7078;51.542;7.314;2024-02-21T08:03:58;9.50;99.90
14006;DHT22;7078;51.542;7.314;2024-02-21T08:06:24;9.50;99.90
14006;DHT22;7078;51.542;7.314;2024-02-21T08:08:50;9.50;99.90
14006;DHT22;7078;51.542;7.314;2024-02-21T08:11:15;9.50;99.90
14006;DHT22;7078;51.542;7.314;2024-02-21T08:13:41;9.50;99.90
14006;DHT22;7078;51.542;7.314;2024-02-21T08:16:06;9.60;99.90
14006;DHT22;7078;51.542;7.314;2024-02-21T08:18:32;9.60;99.90
14006;DHT22;7078;51.542;7.314;2024-02-21T08:21:01;9.50;99.90
14006;DHT22;7078;51.542;7.314;2024-02-21T08:23:27;9.60;99.90
14006;DHT22;7078;51.542;7.314;2024-02-21T08:25:52;9.50;99.90
14006;DHT22;7078;51.542;7.314;2024-02-21T08:28:18;9.60;99.90
14006;DHT22;7078;51.542;7.314;2024-02-21T08:30:44;9.60;99.90
14006;DHT22;7078;51.542;7.314;2024-02-21T08:33:14;9.60;99.90
14006;DHT22;7078;51.542;7.314;2024-02-21T08:35:39;9.70;99.90
14006;DHT22;7078;51.542;7.314;2024-02-21T08:38:05;9.70;99.90
14006;DHT22;7078;51.542;7.314;2024-02-21T08:40:30;9.70;99.90
14006;DHT22;7078;51.542;7.314;2024-02-21T08:42:56;9.70;99.90
14006;DHT22;7078;51.542;7.314;2024-02-21T08:45:21;9.80;99.90
14006;DHT22;7078;51.542;7.314;2024-02-21T08:47:47;9.80;99.90
14006;DHT22;7078;51.542;7.314;2024-02-21T08:50:12;9.80;99.90
14006;DHT22;7078;51.542;7.314;2024-02-21T08:52:38;9.90;99.90
14006;DHT22;7078;51.542;7.314;2024-02-21T08:55:04;9.90;99.90
14006;DHT22;7078;51.542;7.314;2024-02-21T08:57:30;10.00;99.90
14006;DHT22;7078;51.542;7.314;2024-02-21T09:00:03;10.00;99.90
14006;DHT22;7078;51.542;7.314;2024-02-21T09:02:35;10.10;99.90
14006;DHT22;7078;51.542;7.314;2024-02-21T09:05:01;10.00;99.90
14006;DHT22;7078;51.542;7.314;2024-02-21T09:07:26;10.00;99.90
14006;DHT22;7078;51.542;7.314;2024-02-21T09:09:52;9.90;99.90
14006;DHT22;7078;51.542;7.314;2024-02-21T09:12:17;9.90;99.90
14006;DHT22;7078;51.542;7.314;2024-02-21T09:14:43;9.80;99.90
14006;DHT22;7078;51.542;7.314;2024-02-21T09:17:09;9.90;99.90
14006;DHT22;7078;51.542;7.314;2024-02-21T09:19:35;9.90;99.90
14006;DHT22;7078;51.542;7.314;2024-02-21T09:22:01;9.80;99.90
14006;DHT22;7078;51.542;7.314;2024-02-21T09:24:26;9.80;99.90
14006;DHT22;7078;51.542;7.314;2024-02-21T09:26:52;9.70;99.90
14006;DHT22;7078;51.542;7.314;2024-02-21T09:29:18;9.60;99.90
14006;DHT22;7078;51.542;7.314;2024-02-21T09:31:43;9.60;99.90
14006;DHT22;7078;51.542;7.314;2024-02-21T09:34:09;9.60;99.90
14006;DHT22;7078;51.542;7.314;2024-02-21T09:36:36;9.50;99.90
14006;DHT22;7078;51.542;7.314;2024-02-21T09:39:01;9.50;99.90
14006;DHT22;7078;51.542;7.314;2024-02-21T09:41:27;9.40;99.90
14006;DHT22;7078;51.542;7.314;2024-02-21T09:43:53;9.30;99.90
14006;DHT22;7078;51.542;7.314;2024-02-21T09:46:24;9.30;99.90
14006;DHT22;7078;51.542;7.314;2024-02-21T09:49:13;9.20;99.90
14006;DHT22;7078;51.542;7.314;2024-02-21T09:51:41;9.20;99.90
14006;DHT22;7078;51.542;7.314;2024-02-21T09:54:09;9.20;99.90
14006;DHT22;7078;51.542;7.314;2024-02-21T09:56:34;9.20;99.90
14006;DHT22;7078;51.542;7.314;2024-02-21T09:59:01;9.20;99.90
14006;DHT22;7078;51.542;7.314;2024-02-21T10:01:30;9.20;99.90
14006;DHT22;7078;51.542;7.314;2024-02-21T10:03:57;9.20;99.90
14006;DHT22;7078;51.542;7.314;2024-02-21T10:06:22;9.20;99.90
14006;DHT22;7078;51.542;7.314;2024-02-21T10:08:53;9.20;99.90
14006;DHT22;7078;51.542;7.314;2024-02-21T10:11:25;9.10;99.90
14006;DHT22;7078;51.542;7.314;2024-02-21T10:13:51;9.20;99.90
14006;DHT22;7078;51.542;7.314;2024-02-21T10:16:16;9.20;99.90
14006;DHT22;7078;51.542;7.314;2024-02-21T10:18:42;9.10;99.90
14006;DHT22;7078;51.542;7.314;2024-02-21T10:21:08;9.10;99.90
14006;DHT22;7078;51.542;7.314;2024-02-21T10:23:46;9.10;99.90
14006;DHT22;7078;51.542;7.314;2024-02-21T10:26:12;9.20;99.90
14006;DHT22;7078;51.542;7.314;2024-02-21T10:28:39;9.30;99.90
14006;DHT22;7078;51.542;7.314;2024-02-21T10:31:08;9.30;99.90
14006;DHT22;7078;51.542;7.314;2024-02-21T10:33:34;9.30;99.90
14006;DHT22;7078;51.542;7.314;2024-02-21T10:36:07;9.40;99.90
14006;DHT22;7078;51.542;7.314;2024-02-21T10:38:33;9.40;99.90
14006;DHT22;7078;51.542;7.314;2024-02-21T10:40:59;9.50;99.90
14006;DHT22;7078;51.542;7.314;2024-02-21T10:43:30;9.60;99.90
14006;DHT22;7078;51.542;7.314;2024-02-21T10:46:00;9.70;99.90
14006;DHT22;7078;51.542;7.314;2024-02-21T10:48:36;9.80;99.90
14006;DHT22;7078;51.542;7.314;2024-02-21T10:51:17;10.00;99.90
14006;DHT22;7078;51.542;7.314;2024-02-21T10:56:38;10.10;99.90
14006;DHT22;7078;51.542;7.314;2024-02-21T10:59:06;10.10;99.90
14006;DHT22;7078;51.542;7.314;2024-02-21T11:01:32;10.00;99.90
14006;DHT22;7078;51.542;7.314;2024-02-21T11:04:08;10.10;99.90
14006;DHT22;7078;51.542;7.314;2024-02-21T11:06:36;10.10;99.90
14006;DHT22;7078;51.542;7.314;2024-02-21T11:09:06;10.10;99.90
14006;DHT22;7078;51.542;7.314;2024-02-21T11:11:35;10.20;99.90
14006;DHT22;7078;51.542;7.314;2024-02-21T11:14:10;10.20;99.90
14006;DHT22;7078;51.542;7.314;2024-02-21T11:16:37;10.30;99.90
14006;DHT22;7078;51.542;7.314;2024-02-21T11:19:25;10.40;99.90
14006;DHT22;7078;51.542;7.314;2024-02-21T11:21:51;10.40;99.90
14006;DHT22;7078;51.542;7.314;2024-02-21T11:24:33;10.40;99.90
14006;DHT22;7078;51.542;7.314;2024-02-21T11:27:15;10.50;99.90
14006;DHT22;7078;51.542;7.314;2024-02-21T11:29:45;10.60;99.90
14006;DHT22;7078;51.542;7.314;2024-02-21T11:32:20;10.60;99.90
14006;DHT22;7078;51.542;7.314;2024-02-21T11:35:02;10.60;99.90
14006;DHT22;7078;51.542;7.314;2024-02-21T11:37:33;10.60;99.90
14006;DHT22;7078;51.542;7.314;2024-02-21T11:39:59;10.60;99.90
14006;DHT22;7078;51.542;7.314;2024-02-21T11:42:26;10.60;99.90
14006;DHT22;7078;51.542;7.314;2024-02-21T11:44:53;10.60;99.90
14006;DHT22;7078;51.542;7.314;2024-02-21T11:47:19;10.60;99.90
14006;DHT22;7078;51.542;7.314;2024-02-21T11:49:48;10.70;99.90
14006;DHT22;7078;51.542;7.314;2024-02-21T11:52:15;10.70;99.90
14006;DHT22;7078;51.542;7.314;2024-02-21T11:54:42;10.80;99.90
14006;DHT22;7078;51.542;7.314;2024-02-21T11:57:08;10.80;99.90
14006;DHT22;7078;51.542;7.314;2024-02-21T11:59:34;10.80;99.90
14006;DHT22;7078;51.542;7.314;2024-02-21T12:02:00;10.90;99.90
14006;DHT22;7078;51.542;7.314;2024-02-21T12:04:26;11.00;99.90
14006;DHT22;7078;51.542;7.314;2024-02-21T12:06:53;11.00;99.90
14006;DHT22;7078;51.542;7.314;2024-02-21T12:09:19;11.00;99.90
14006;DHT22;7078;51.542;7.314;2024-02-21T12:11:45;11.10;99.90
14006;DHT22;7078;51.542;7.314;2024-02-21T12:14:15;11.20;99.90
14006;DHT22;7078;51.542;7.314;2024-02-21T12:16:41;11.30;99.90
14006;DHT22;7078;51.542;7.314;2024-02-21T12:19:07;11.40;99.90
14006;DHT22;7078;51.542;7.314;2024-02-21T12:21:34;11.50;99.90
14006;DHT22;7078;51.542;7.314;2024-02-21T12:24:16;11.50;99.90
14006;DHT22;7078;51.542;7.314;2024-02-21T12:26:42;11.40;99.90
14006;DHT22;7078;51.542;7.314;2024-02-21T12:29:08;11.50;99.90
14006;DHT22;7078;51.542;7.314;2024-02-21T12:31:37;11.50;99.90
14006;DHT22;7078;51.542;7.314;2024-02-21T12:34:03;11.40;99.90
14006;DHT22;7078;51.542;7.314;2024-02-21T12:36:30;11.40;99.90
14006;DHT22;7078;51.542;7.314;2024-02-21T12:38:55;11.30;99.90
14006;DHT22;7078;51.542;7.314;2024-02-21T12:41:21;11.30;99.90
14006;DHT22;7078;51.542;7.314;2024-02-21T12:43:46;11.30;99.90
14006;DHT22;7078;51.542;7.314;2024-02-21T12:46:12;11.30;99.90
14006;DHT22;7078;51.542;7.314;2024-02-21T12:48:38;11.40;99.90
14006;DHT22;7078;51.542;7.314;2024-02-21T12:51:03;11.30;99.90
14006;DHT22;7078;51.542;7.314;2024-02-21T12:53:30;11.40;99.90
14006;DHT22;7078;51.542;7.314;2024-02-21T12:55:55;11.50;99.90
14006;DHT22;7078;51.542;7.314;2024-02-21T12:58:22;11.50;99.90
14006;DHT22;7078;51.542;7.314;2024-02-21T13:00:47;11.60;99.90
14006;DHT22;7078;51.542;7.314;2024-02-21T13:03:14;11.60;99.90
14006;DHT22;7078;51.542;7.314;2024-02-21T13:05:39;11.60;99.90
14006;DHT22;7078;51.542;7.314;2024-02-21T13:08:06;11.60;99.90
14006;DHT22;7078;51.542;7.314;2024-02-21T13:10:32;11.60;99.90
14006;DHT22;7078;51.542;7.314;2024-02-21T13:13:02;11.60;99.90
14006;DHT22;7078;51.542;7.314;2024-02-21T13:15:28;11.70;99.90
14006;DHT22;7078;51.542;7.314;2024-02-21T13:17:55;11.70;99.90
14006;DHT22;7078;51.542;7.314;2024-02-21T13:20:21;11.70;99.90
14006;DHT22;7078;51.542;7.314;2024-02-21T13:22:46;11.80;99.90
14006;DHT22;7078;51.542;7.314;2024-02-21T13:25:12;11.80;99.90
14006;DHT22;7078;51.542;7.314;2024-02-21T13:27:41;11.90;99.90
14006;DHT22;7078;51.542;7.314;2024-02-21T13:30:07;11.90;99.90
14006;DHT22;7078;51.542;7.314;2024-02-21T13:32:34;12.00;99.90
14006;DHT22;7078;51.542;7.314;2024-02-21T13:35:00;12.00;99.90
14006;DHT22;7078;51.542;7.314;2024-02-21T13:37:27;12.00;99.90
14006;DHT22;7078;51.542;7.314;2024-02-21T13:39:53;11.90;99.90
14006;DHT22;7078;51.542;7.314;2024-02-21T13:42:19;11.90;99.90
14006;DHT22;7078;51.542;7.314;2024-02-21T13:44:45;11.90;99.90
14006;DHT22;7078;51.542;7.314;2024-02-21T13:47:12;11.90;99.90
14006;DHT22;7078;51.542;7.314;2024-02-21T13:49:39;11.80;99.90
14006;DHT22;7078;51.542;7.314;2024-02-21T13:52:04;11.80;99.90
14006;DHT22;7078;51.542;7.314;2024-02-21T13:54:30;11.80;99.90
14006;DHT22;7078;51.542;7.314;2024-02-21T13:56:55;11.80;99.90
14006;DHT22;7078;51.542;7.314;2024-02-21T13:59:21;11.90;99.90
14006;DHT22;7078;51.542;7.314;2024-02-21T14:01:46;11.90;99.90
14006;DHT22;7078;51.542;7.314;2024-02-21T14:04:12;11.90;99.90
14006;DHT22;7078;51.542;7.314;2024-02-21T14:06:37;11.90;99.90
14006;DHT22;7078;51.542;7.314;2024-02-21T14:09:09;11.80;99.90
14006;DHT22;7078;51.542;7.314;2024-02-21T14:11:34;11.80;99.90
14006;DHT22;7078;51.542;7.314;2024-02-21T14:14:00;11.80;99.90
14006;DHT22;7078;51.542;7.314;2024-02-21T14:16:25;11.70;99.90
14006;DHT22;7078;51.542;7.314;2024-02-21T14:18:51;11.70;99.90
14006;DHT22;7078;51.542;7.314;2024-02-21T14:21:16;11.70;99.90
14006;DHT22;7078;51.542;7.314;2024-02-21T14:23:42;11.70;99.90
14006;DHT22;7078;51.542;7.314;2024-02-21T14:26:08;11.60;99.90
14006;DHT22;7078;51.542;7.314;2024-02-21T14:28:34;11.60;99.90
14006;DHT22;7078;51.542;7.314;2024-02-21T14:31:00;11.70;99.90
14006;DHT22;7078;51.542;7.314;2024-02-21T14:33:29;11.70;99.90
14006;DHT22;7078;51.542;7.314;2024-02-21T14:35:56;11.80;99.90
14006;DHT22;7078;51.542;7.314;2024-02-21T14:38:21;11.80;99.90
14006;DHT22;7078;51.542;7.314;2024-02-21T14:40:47;11.80;99.90
14006;DHT22;7078;51.542;7.314;2024-02-21T14:43:13;11.80;99.90
14006;DHT22;7078;51.542;7.314;2024-02-21T14:45:38;11.80;99.90
14006;DHT22;7078;51.542;7.314;2024-02-21T14:48:05;11.80;99.90
14006;DHT22;7078;51.542;7.314;2024-02-21T14:50:31;11.80;99.90
14006;DHT22;7078;51.542;7.314;2024-02-21T14:52:57;11.90;99.90
14006;DHT22;7078;51.542;7.314;2024-02-21T14:55:22;11.90;99.90
14006;DHT22;7078;51.542;7.314;2024-02-21T14:57:49;12.00;99.90
14006;DHT22;7078;51.542;7.314;2024-02-21T15:00:15;11.90;99.90
14006;DHT22;7078;51.542;7.314;2024-02-21T15:02:40;11.90;99.90
14006;DHT22;7078;51.542;7.314;2024-02-21T15:05:06;11.80;99.90
14006;DHT22;7078;51.542;7.314;2024-02-21T15:07:32;11.80;99.90
14006;DHT22;7078;51.542;7.314;2024-02-21T15:09:58;11.70;99.90
14006;DHT22;7078;51.542;7.314;2024-02-21T15:12:24;11.70;99.90
14006;DHT22;7078;51.542;7.314;2024-02-21T15:14:50;11.70;99.90
14006;DHT22;7078;51.542;7.314;2024-02-21T15:17:17;11.60;99.90
14006;DHT22;7078;51.542;7.314;2024-02-21T15:19:43;11.60;99.90
14006;DHT22;7078;51.542;7.314;2024-02-21T15:22:12;11.50;99.90
14006;DHT22;7078;51.542;7.314;2024-02-21T15:24:38;11.40;99.90
14006;DHT22;7078;51.542;7.314;2024-02-21T15:27:04;11.40;99.90
14006;DHT22;7078;51.542;7.314;2024-02-21T15:29:30;11.40;99.90
14006;DHT22;7078;51.542;7.314;2024-02-21T15:31:55;11.30;99.90
14006;DHT22;7078;51.542;7.314;2024-02-21T15:34:21;11.30;99.90
14006;DHT22;7078;51.542;7.314;2024-02-21T15:36:47;11.20;99.90
14006;DHT22;7078;51.542;7.314;2024-02-21T15:39:12;11.20;99.90
14006;DHT22;7078;51.542;7.314;2024-02-21T15:41:38;11.20;99.90
14006;DHT22;7078;51.542;7.314;2024-02-21T15:44:04;11.20;99.90
14006;DHT22;7078;51.542;7.314;2024-02-21T15:46:30;11.20;99.90
14006;DHT22;7078;51.542;7.314;2024-02-21T15:49:01;11.20;99.90
14006;DHT22;7078;51.542;7.314;2024-02-21T15:51:27;11.10;99.90
14006;DHT22;7078;51.542;7.314;2024-02-21T15:53:52;11.10;99.90
14006;DHT22;7078;51.542;7.314;2024-02-21T15:56:18;11.10;99.90